Time;durP1;ratioP1;P1;durP2;ratioP2;P2;SDS_P1;SDS_P2;PMS_P1;PMS_P2;Temp;Humidity;BMP_temperature;BMP_pressure;BME280_temperature;BME280_humidity;BME280_pressure;Samples;Min_cycle;Max_cycle;Signal;HPM_P1;HPM_P2
2021/01/30 00:00:42;;;;;;;7.70;6.28;;;;;;;;;;5031376;28;20021;-81
2021/01/30 00:03:09;;;;;;;7.85;6.10;;;;;;;;;;5032524;28;20016;-81
2021/01/30 00:05:35;;;;;;;9.57;6.43;;;;;;;;;;5030876;28;20017;-81
2021/01/30 00:08:01;;;;;;;8.60;5.10;;;;;;;;;;5029010;28;20017;-81
2021/01/30 00:10:27;;;;;;;9.25;6.60;;;;;;;;;;5030950;28;20017;-81
2021/01/30 00:12:53;;;;;;;9.65;6.60;;;;;;;;;;5031140;28;20021;-81
2021/01/30 00:15:24;;;;;;;10.50;7.10;;;;;;;;;;5030516;28;20037;-82
2021/01/30 00:17:50;;;;;;;;;;;;;;;;;;5031584;28;20029;-82
2021/01/30 00:20:20;;;;;;;11.27;6.70;;;;;;;;;;5030872;28;19901;-81
2021/01/30 00:22:46;;;;;;;9.43;6.38;;;;;;;;;;5032353;28;20021;-81
2021/01/30 00:25:12;;;;;;;10.27;8.20;;;;;;;;;;5032221;28;20017;-81
2021/01/30 00:27:38;;;;;;;11.95;7.38;;;;;;;;;;5032055;28;20599;-81
2021/01/30 00:30:07;;;;;;;12.18;9.40;;;;;;;;;;5030967;28;20128;-80
2021/01/30 00:32:33;;;;;;;13.15;10.15;;;;;;;;;;5030715;28;20370;-81
2021/01/30 00:34:59;;;;;;;13.07;10.27;;;;;;;;;;5030632;28;20036;-81
2021/01/30 00:37:25;;;;;;;12.07;9.63;;;;;;;;;;5030394;28;20390;-81
2021/01/30 00:39:52;;;;;;;10.02;5.70;;;;;;;;;;5031904;28;20028;-81
2021/01/30 00:42:20;;;;;;;13.00;10.18;;;;;;;;;;5030857;28;20018;-81
2021/01/30 00:44:46;;;;;;;12.60;7.05;;;;;;;;;;5032379;28;20454;-81
2021/01/30 00:47:12;;;;;;;14.40;10.55;;;;;;;;;;5030550;28;20029;-81
2021/01/30 00:49:42;;;;;;;13.82;10.23;;;;;;;;;;5031011;28;20030;-81
2021/01/30 00:52:08;;;;;;;17.58;12.77;;;;;;;;;;5034411;28;20017;-81
2021/01/30 00:54:34;;;;;;;15.00;11.43;;;;;;;;;;5035612;28;20086;-81
2021/01/30 00:57:00;;;;;;;15.68;11.32;;;;;;;;;;5034408;28;20362;-81
2021/01/30 00:59:26;;;;;;;19.48;13.10;;;;;;;;;;5034355;28;20021;-81
2021/01/30 01:01:52;;;;;;;17.13;12.43;;;;;;;;;;5036058;28;20018;-81
2021/01/30 01:04:19;;;;;;;16.25;12.23;;;;;;;;;;5034509;28;20068;-82
2021/01/30 01:06:45;;;;;;;13.50;8.88;;;;;;;;;;5034270;28;20017;-81
2021/01/30 01:09:12;;;;;;;11.77;5.93;;;;;;;;;;5034301;28;20025;-81
2021/01/30 01:11:39;;;;;;;21.33;14.40;;;;;;;;;;5035128;28;20017;-82
2021/01/30 01:14:05;;;;;;;20.08;14.73;;;;;;;;;;5035601;28;20458;-81
2021/01/30 01:16:32;;;;;;;17.90;11.25;;;;;;;;;;5033661;28;20042;-81
2021/01/30 01:18:58;;;;;;;17.35;11.15;;;;;;;;;;5035397;28;20017;-81
2021/01/30 01:21:24;;;;;;;14.00;8.40;;;;;;;;;;5033890;28;20072;-81
2021/01/30 01:23:50;;;;;;;16.58;10.60;;;;;;;;;;5035616;28;20029;-81
2021/01/30 01:26:18;;;;;;;17.52;13.32;;;;;;;;;;5035166;28;20024;-82
2021/01/30 01:28:44;;;;;;;16.92;12.15;;;;;;;;;;5034786;28;20020;-82
2021/01/30 01:31:11;;;;;;;16.52;9.15;;;;;;;;;;5033667;28;20132;-82
2021/01/30 01:33:38;;;;;;;19.20;15.00;;;;;;;;;;5033329;28;20319;-82
2021/01/30 01:36:04;;;;;;;18.20;11.18;;;;;;;;;;5033485;28;20510;-81
2021/01/30 01:38:30;;;;;;;14.32;7.68;;;;;;;;;;5032901;28;20049;-81
2021/01/30 01:40:56;;;;;;;17.65;12.38;;;;;;;;;;5033504;28;20020;-81
2021/01/30 01:43:24;;;;;;;17.15;10.75;;;;;;;;;;5033350;28;20314;-82
2021/01/30 01:46:10;;;;;;;15.85;9.07;;;;;;;;;;5033355;28;20084;-81
2021/01/30 01:48:39;;;;;;;15.27;10.10;;;;;;;;;;5016337;28;20033;-81
2021/01/30 01:51:07;;;;;;;15.98;11.65;;;;;;;;;;5033202;28;20511;-81
2021/01/30 01:53:36;;;;;;;15.10;8.45;;;;;;;;;;5034053;28;20369;-81
2021/01/30 01:56:11;;;;;;;14.52;9.38;;;;;;;;;;5033387;28;20112;-80
2021/01/30 01:58:40;;;;;;;11.90;8.07;;;;;;;;;;5033185;28;20029;-80
2021/01/30 02:01:06;;;;;;;11.73;8.90;;;;;;;;;;5033341;28;20032;-81
2021/01/30 02:03:33;;;;;;;13.48;9.40;;;;;;;;;;5033000;28;20024;-82
2021/01/30 02:06:03;;;;;;;10.85;8.15;;;;;;;;;;5033146;28;20048;-82
2021/01/30 02:08:29;;;;;;;11.15;8.32;;;;;;;;;;5032933;28;20027;-82
2021/01/30 02:10:56;;;;;;;14.57;9.32;;;;;;;;;;5033146;28;20480;-82
2021/01/30 02:13:36;;;;;;;11.27;7.22;;;;;;;;;;5032919;28;20405;-82
2021/01/30 02:16:16;;;;;;;16.10;9.35;;;;;;;;;;5032778;28;20026;-81
2021/01/30 02:18:45;;;;;;;12.93;8.57;;;;;;;;;;5032805;28;20029;-81
2021/01/30 02:21:17;;;;;;;13.20;9.10;;;;;;;;;;5034543;28;20029;-81
2021/01/30 02:24:01;;;;;;;13.05;6.97;;;;;;;;;;5033901;28;20323;-82
2021/01/30 02:26:39;;;;;;;14.07;9.10;;;;;;;;;;5032577;28;20025;-82
2021/01/30 02:29:05;;;;;;;11.98;9.68;;;;;;;;;;5032898;28;20105;-81
2021/01/30 02:31:43;;;;;;;12.85;8.65;;;;;;;;;;5033447;28;20014;-81
2021/01/30 02:34:26;;;;;;;14.40;10.88;;;;;;;;;;5032551;28;20445;-82
2021/01/30 02:36:55;;;;;;;13.05;6.38;;;;;;;;;;5032843;28;20018;-81
2021/01/30 02:39:27;;;;;;;11.20;6.63;;;;;;;;;;5035689;28;20020;-81
2021/01/30 02:41:59;;;;;;;13.52;8.77;;;;;;;;;;5035691;28;20027;-81
2021/01/30 02:44:27;;;;;;;13.30;9.65;;;;;;;;;;5035686;28;20070;-81
2021/01/30 02:46:55;;;;;;;15.57;10.25;;;;;;;;;;5035684;28;20036;-80
2021/01/30 02:49:23;;;;;;;14.75;9.82;;;;;;;;;;5053412;28;20072;-80
2021/01/30 02:51:52;;;;;;;14.65;10.65;;;;;;;;;;5035503;28;20031;-80
2021/01/30 02:54:18;;;;;;;12.63;9.63;;;;;;;;;;5035548;28;20032;-81
2021/01/30 02:56:46;;;;;;;13.90;9.55;;;;;;;;;;5052973;28;20092;-81
2021/01/30 02:59:18;;;;;;;13.75;9.02;;;;;;;;;;5035391;28;20603;-81
2021/01/30 03:01:44;;;;;;;12.55;7.80;;;;;;;;;;5035176;28;20455;-81
2021/01/30 03:04:14;;;;;;;14.90;9.25;;;;;;;;;;5035455;28;20025;-80
2021/01/30 03:06:58;;;;;;;9.90;5.85;;;;;;;;;;5035259;28;20021;-80
2021/01/30 03:09:30;;;;;;;7.15;3.83;;;;;;;;;;5035509;28;20025;-81
2021/01/30 03:12:05;;;;;;;6.47;3.15;;;;;;;;;;5034983;28;20013;-81
2021/01/30 03:14:33;;;;;;;13.50;9.55;;;;;;;;;;5034800;28;20029;-82
2021/01/30 03:17:01;;;;;;;11.15;7.30;;;;;;;;;;5053354;28;20096;-81
2021/01/30 03:19:30;;;;;;;12.40;8.55;;;;;;;;;;5035246;28;20021;-81
2021/01/30 03:22:01;;;;;;;12.45;6.78;;;;;;;;;;5035280;28;20178;-81
2021/01/30 03:24:28;;;;;;;10.32;7.07;;;;;;;;;;5035124;28;20108;-82
2021/01/30 03:26:54;;;;;;;13.70;6.95;;;;;;;;;;5034661;28;20346;-80
2021/01/30 03:29:20;;;;;;;10.18;7.45;;;;;;;;;;5052970;28;20112;-80
2021/01/30 03:31:47;;;;;;;9.68;6.30;;;;;;;;;;5034705;28;20021;-80
2021/01/30 03:34:14;;;;;;;10.40;6.68;;;;;;;;;;5034895;28;20036;-80
2021/01/30 03:36:40;;;;;;;9.32;5.88;;;;;;;;;;5034606;28;20477;-80
2021/01/30 03:39:07;;;;;;;10.60;6.65;;;;;;;;;;5052177;28;20125;-80
2021/01/30 03:41:33;;;;;;;10.15;6.85;;;;;;;;;;5052534;28;20032;-80
2021/01/30 03:43:59;;;;;;;9.40;4.38;;;;;;;;;;5034790;28;20025;-81
2021/01/30 03:46:25;;;;;;;12.20;7.22;;;;;;;;;;5034730;28;20017;-81
2021/01/30 03:48:51;;;;;;;11.75;6.57;;;;;;;;;;5034304;28;20013;-81
2021/01/30 03:51:17;;;;;;;10.90;7.40;;;;;;;;;;5034647;28;20334;-80
2021/01/30 03:53:43;;;;;;;8.88;6.40;;;;;;;;;;5051882;28;20078;-81
2021/01/30 03:56:10;;;;;;;9.20;5.10;;;;;;;;;;5052296;28;20092;-81
2021/01/30 03:58:39;;;;;;;9.25;6.45;;;;;;;;;;5034324;28;20158;-81
2021/01/30 04:01:06;;;;;;;10.43;7.03;;;;;;;;;;5034600;28;20025;-81
2021/01/30 04:03:32;;;;;;;11.15;7.07;;;;;;;;;;5034253;28;20067;-81
2021/01/30 04:05:58;;;;;;;13.32;7.82;;;;;;;;;;5034548;28;20367;-82
2021/01/30 04:08:24;;;;;;;13.30;7.00;;;;;;;;;;5034310;28;20020;-81
2021/01/30 04:10:50;;;;;;;13.25;7.75;;;;;;;;;;5052080;28;20033;-81
2021/01/30 04:13:17;;;;;;;12.10;7.72;;;;;;;;;;5034344;28;20020;-81
2021/01/30 04:15:44;;;;;;;9.90;6.78;;;;;;;;;;5034078;28;20412;-81
2021/01/30 04:18:11;;;;;;;9.25;5.50;;;;;;;;;;5034054;28;20058;-81
2021/01/30 04:20:37;;;;;;;9.48;6.00;;;;;;;;;;5034098;28;20025;-81
2021/01/30 04:23:04;;;;;;;10.85;6.72;;;;;;;;;;5034311;28;20381;-82
2021/01/30 04:25:30;;;;;;;9.35;6.60;;;;;;;;;;5036266;28;20066;-82
2021/01/30 04:27:56;;;;;;;10.35;5.55;;;;;;;;;;5038217;28;20100;-82
2021/01/30 04:30:24;;;;;;;9.95;6.32;;;;;;;;;;5056245;28;20032;-81
2021/01/30 04:32:50;;;;;;;9.13;5.75;;;;;;;;;;5038165;28;20029;-81
2021/01/30 04:35:19;;;;;;;7.90;5.57;;;;;;;;;;5056165;28;20111;-81
2021/01/30 04:37:45;;;;;;;9.95;4.53;;;;;;;;;;5037743;28;20037;-82
2021/01/30 04:40:17;;;;;;;6.63;3.78;;;;;;;;;;5038231;28;20464;-81
2021/01/30 04:42:48;;;;;;;14.48;4.28;;;;;;;;;;5037975;28;20021;-81
2021/01/30 04:45:19;;;;;;;6.93;4.38;;;;;;;;;;5056004;28;20021;-81
2021/01/30 04:47:56;;;;;;;7.40;3.67;;;;;;;;;;5037672;28;20024;-81
2021/01/30 04:50:38;;;;;;;5.53;3.30;;;;;;;;;;5056109;28;20021;-81
2021/01/30 04:53:07;;;;;;;6.88;4.30;;;;;;;;;;5037877;28;20576;-81
2021/01/30 04:55:38;;;;;;;6.57;3.72;;;;;;;;;;5037729;28;20053;-82
2021/01/30 04:58:04;;;;;;;7.07;3.80;;;;;;;;;;5037606;28;20028;-81
2021/01/30 05:00:30;;;;;;;6.75;3.72;;;;;;;;;;5037831;28;20025;-81
2021/01/30 05:03:15;;;;;;;7.03;4.05;;;;;;;;;;5037427;28;20504;-81
2021/01/30 05:05:43;;;;;;;5.80;3.75;;;;;;;;;;5037496;28;20021;-82
2021/01/30 05:08:29;;;;;;;6.30;3.58;;;;;;;;;;5037616;28;20028;-81
2021/01/30 05:11:01;;;;;;;7.18;3.92;;;;;;;;;;5037553;28;20471;-81
2021/01/30 05:13:31;;;;;;;6.07;2.83;;;;;;;;;;5037264;28;20021;-81
2021/01/30 05:15:59;;;;;;;5.93;2.90;;;;;;;;;;5037496;28;20024;-82
2021/01/30 05:18:28;;;;;;;7.28;4.53;;;;;;;;;;5037626;28;20279;-81
2021/01/30 05:21:00;;;;;;;6.90;3.88;;;;;;;;;;5037226;28;20020;-81
2021/01/30 05:23:27;;;;;;;6.90;2.80;;;;;;;;;;5037353;28;20021;-81
2021/01/30 05:25:58;;;;;;;8.18;4.88;;;;;;;;;;5055009;28;20027;-80
2021/01/30 05:28:30;;;;;;;7.78;4.22;;;;;;;;;;5054867;28;20354;-81
2021/01/30 05:31:14;;;;;;;7.80;5.20;;;;;;;;;;5055024;28;20044;-81
2021/01/30 05:33:40;;;;;;;8.13;5.07;;;;;;;;;;5036892;28;20021;-81
2021/01/30 05:36:08;;;;;;;6.75;3.38;;;;;;;;;;5036788;28;20025;-81
2021/01/30 05:38:37;;;;;;;6.80;3.72;;;;;;;;;;5036820;28;20049;-81
2021/01/30 05:41:07;;;;;;;9.50;5.88;;;;;;;;;;5037088;28;20013;-81
2021/01/30 05:43:39;;;;;;;9.77;5.90;;;;;;;;;;5054684;28;20096;-82
2021/01/30 05:46:06;;;;;;;8.77;5.90;;;;;;;;;;5037102;28;20020;-81
2021/01/30 05:48:35;;;;;;;8.27;5.25;;;;;;;;;;5054926;28;20456;-81
2021/01/30 05:51:10;;;;;;;8.32;5.07;;;;;;;;;;5036400;28;20025;-81
2021/01/30 05:53:36;;;;;;;10.15;4.85;;;;;;;;;;5054649;28;20052;-81
2021/01/30 05:56:02;;;;;;;9.52;6.05;;;;;;;;;;5036497;28;20048;-81
2021/01/30 05:58:31;;;;;;;9.10;5.22;;;;;;;;;;5036738;28;20021;-82
2021/01/30 06:01:32;;;;;;;10.25;5.55;;;;;;;;;;5036468;28;20021;-80
2021/01/30 06:04:00;;;;;;;7.35;4.93;;;;;;;;;;4973049;28;20102;-80
2021/01/30 06:06:28;;;;;;;8.65;5.35;;;;;;;;;;5025062;28;20028;-81
2021/01/30 06:08:59;;;;;;;8.15;5.20;;;;;;;;;;5036324;28;20044;-81
2021/01/30 06:11:25;;;;;;;9.38;4.90;;;;;;;;;;5036577;28;20020;-81
2021/01/30 06:13:51;;;;;;;9.32;5.85;;;;;;;;;;5036178;28;20079;-81
2021/01/30 06:16:34;;;;;;;9.88;5.82;;;;;;;;;;5054146;28;20058;-81
2021/01/30 06:19:09;;;;;;;8.95;5.85;;;;;;;;;;5054416;28;20029;-81
2021/01/30 06:21:35;;;;;;;10.38;6.30;;;;;;;;;;5054143;28;20017;-80
2021/01/30 06:24:03;;;;;;;7.50;3.70;;;;;;;;;;5036020;28;20052;-81
2021/01/30 06:26:29;;;;;;;10.18;6.22;;;;;;;;;;5054152;28;20018;-80
2021/01/30 06:29:02;;;;;;;10.93;6.90;;;;;;;;;;5036026;28;20338;-81
2021/01/30 06:31:30;;;;;;;10.65;6.97;;;;;;;;;;5036325;28;20024;-81
2021/01/30 06:34:01;;;;;;;8.93;5.47;;;;;;;;;;5035887;28;20044;-81
2021/01/30 06:36:28;;;;;;;10.02;5.97;;;;;;;;;;5054096;28;20028;-81
2021/01/30 06:39:07;;;;;;;9.70;6.25;;;;;;;;;;5035574;28;20049;-81
2021/01/30 06:41:33;;;;;;;8.63;5.60;;;;;;;;;;5053559;28;20465;-81
2021/01/30 06:44:05;;;;;;;9.38;5.57;;;;;;;;;;5053881;28;20035;-81
2021/01/30 06:46:32;;;;;;;10.05;5.75;;;;;;;;;;5053678;28;20345;-81
2021/01/30 06:49:14;;;;;;;9.38;6.18;;;;;;;;;;5034820;28;20013;-81
2021/01/30 06:51:40;;;;;;;9.10;4.65;;;;;;;;;;5035710;28;20466;-82
2021/01/30 06:54:16;;;;;;;11.40;6.32;;;;;;;;;;5035344;28;20025;-81
2021/01/30 06:56:42;;;;;;;11.13;6.40;;;;;;;;;;5053258;28;20450;-81
2021/01/30 06:59:14;;;;;;;8.75;5.63;;;;;;;;;;5035741;28;20021;-80
2021/01/30 07:01:42;;;;;;;8.52;5.32;;;;;;;;;;5053503;28;20020;-81
2021/01/30 07:04:08;;;;;;;7.97;5.30;;;;;;;;;;5035524;28;20029;-81
2021/01/30 07:06:46;;;;;;;9.48;5.60;;;;;;;;;;5035390;28;20078;-81
2021/01/30 07:09:12;;;;;;;8.48;5.63;;;;;;;;;;5035351;28;20028;-81
2021/01/30 07:11:49;;;;;;;7.93;4.22;;;;;;;;;;5053238;28;20021;-81
2021/01/30 07:14:23;;;;;;;8.93;5.57;;;;;;;;;;5035166;28;20047;-80
2021/01/30 07:16:52;;;;;;;9.70;5.78;;;;;;;;;;5035129;28;20032;-82
2021/01/30 07:19:24;;;;;;;9.63;6.05;;;;;;;;;;5035351;28;20017;-80
2021/01/30 07:21:53;;;;;;;10.95;6.57;;;;;;;;;;5034793;28;20025;-80
2021/01/30 07:24:28;;;;;;;12.18;7.05;;;;;;;;;;5034991;28;20392;-81
2021/01/30 07:26:57;;;;;;;7.70;3.38;;;;;;;;;;5034727;28;20040;-81
2021/01/30 07:29:31;;;;;;;12.32;6.82;;;;;;;;;;5034977;28;20017;-79
2021/01/30 07:32:02;;;;;;;12.30;7.38;;;;;;;;;;5034790;28;20013;-80
2021/01/30 07:34:34;;;;;;;9.73;5.72;;;;;;;;;;5034853;28;20028;-80
2021/01/30 07:37:23;;;;;;;9.70;4.63;;;;;;;;;;5034761;28;20124;-81
2021/01/30 07:39:56;;;;;;;9.07;5.40;;;;;;;;;;5034386;28;20033;-80
2021/01/30 07:42:24;;;;;;;9.32;5.55;;;;;;;;;;5052497;28;20021;-80
2021/01/30 07:45:01;;;;;;;9.38;4.97;;;;;;;;;;5034304;28;20120;-81
2021/01/30 07:47:36;;;;;;;8.65;5.13;;;;;;;;;;5052462;28;20024;-81
2021/01/30 07:50:05;;;;;;;8.48;5.10;;;;;;;;;;5052468;28;20021;-81
2021/01/30 07:52:38;;;;;;;9.68;5.40;;;;;;;;;;5034555;28;20028;-81
2021/01/30 07:55:08;;;;;;;10.98;5.32;;;;;;;;;;5052202;28;20024;-81
2021/01/30 07:57:37;;;;;;;8.90;4.45;;;;;;;;;;5034610;28;20029;-81
2021/01/30 08:00:15;;;;;;;9.55;6.03;;;;;;;;;;5034250;28;20028;-81
2021/01/30 08:02:54;;;;;;;9.02;5.45;;;;;;;;;;5034361;28;20023;-81
2021/01/30 08:05:35;;;;;;;9.10;5.95;;;;;;;;;;5033487;28;20131;-81
2021/01/30 08:08:20;;;;;;;9.10;5.35;;;;;;;;;;5051827;28;20052;-81
2021/01/30 08:10:55;;;;;;;11.07;6.03;;;;;;;;;;5034112;28;20020;-80
2021/01/30 08:13:30;;;;;;;9.88;5.13;;;;;;;;;;5051676;28;20013;-81
2021/01/30 08:16:00;;;;;;;10.02;6.30;;;;;;;;;;5033846;28;20029;-81
2021/01/30 08:18:26;;;;;;;;;;;;;;;;;;5034505;28;20021;-81
2021/01/30 08:21:03;;;;;;;9.25;5.15;;;;;;;;;;5052111;28;19901;-80
2021/01/30 08:23:42;;;;;;;11.35;6.18;;;;;;;;;;5051684;28;20017;-81
2021/01/30 08:26:27;;;;;;;13.65;6.88;;;;;;;;;;5051768;28;20099;-81
2021/01/30 08:29:12;;;;;;;10.80;6.22;;;;;;;;;;5051693;28;20020;-80
2021/01/30 08:31:38;;;;;;;10.68;5.43;;;;;;;;;;5051906;28;20071;-81
2021/01/30 08:34:06;;;;;;;12.00;7.05;;;;;;;;;;5051615;28;20507;-81
2021/01/30 08:36:37;;;;;;;10.15;6.88;;;;;;;;;;5033760;28;20064;-81
2021/01/30 08:39:06;;;;;;;13.13;6.38;;;;;;;;;;5033437;28;20056;-80
2021/01/30 08:41:42;;;;;;;10.02;6.03;;;;;;;;;;5033901;28;20020;-80
2021/01/30 08:44:18;;;;;;;9.98;5.63;;;;;;;;;;5033752;28;20027;-80
2021/01/30 08:46:45;;;;;;;12.05;6.47;;;;;;;;;;5033931;28;20024;-80
2021/01/30 08:49:14;;;;;;;12.15;7.30;;;;;;;;;;5033530;28;20446;-81
2021/01/30 08:51:41;;;;;;;13.35;6.88;;;;;;;;;;5051625;28;20029;-81
2021/01/30 08:54:26;;;;;;;12.73;7.93;;;;;;;;;;5033370;28;20075;-80
2021/01/30 08:56:52;;;;;;;14.02;7.35;;;;;;;;;;5027386;28;20374;-80
2021/01/30 08:59:37;;;;;;;11.65;6.63;;;;;;;;;;5032562;28;20556;-81
2021/01/30 09:02:03;;;;;;;14.55;6.82;;;;;;;;;;5031366;28;20263;-81
2021/01/30 09:04:46;;;;;;;10.85;6.75;;;;;;;;;;5032582;28;20508;-81
2021/01/30 09:07:35;;;;;;;16.00;7.18;;;;;;;;;;5029489;28;20037;-81
2021/01/30 09:10:14;;;;;;;11.13;6.75;;;;;;;;;;5039577;28;20029;-80
2021/01/30 09:13:00;;;;;;;12.18;6.93;;;;;;;;;;5052580;28;20124;-80
2021/01/30 09:15:41;;;;;;;11.50;6.50;;;;;;;;;;5053075;28;20087;-80
2021/01/30 09:18:26;;;;;;;11.98;6.88;;;;;;;;;;5053486;28;20086;-80
2021/01/30 09:20:58;;;;;;;15.80;6.70;;;;;;;;;;5033093;28;20064;-81
2021/01/30 09:23:42;;;;;;;11.20;5.97;;;;;;;;;;5036042;28;20096;-80
2021/01/30 09:26:13;;;;;;;11.05;6.53;;;;;;;;;;5035153;28;20017;-80
2021/01/30 09:28:39;;;;;;;11.55;6.68;;;;;;;;;;5053736;28;20134;-80
2021/01/30 09:31:09;;;;;;;9.82;5.88;;;;;;;;;;5035590;28;20465;-81
2021/01/30 09:33:40;;;;;;;10.70;6.53;;;;;;;;;;5051521;28;20039;-81
2021/01/30 09:36:09;;;;;;;11.85;7.60;;;;;;;;;;5053301;28;20346;-81
2021/01/30 09:38:37;;;;;;;12.70;7.10;;;;;;;;;;5033309;28;20075;-81
2021/01/30 09:41:15;;;;;;;10.88;6.30;;;;;;;;;;5035529;28;20040;-81
2021/01/30 09:43:41;;;;;;;11.48;6.80;;;;;;;;;;5034146;28;20021;-80
2021/01/30 09:46:11;;;;;;;13.32;8.43;;;;;;;;;;5035269;28;20035;-81
2021/01/30 09:48:38;;;;;;;13.20;7.32;;;;;;;;;;5035515;28;20092;-80
2021/01/30 09:51:05;;;;;;;10.20;6.45;;;;;;;;;;5053284;28;20017;-79
2021/01/30 09:53:31;;;;;;;10.00;5.68;;;;;;;;;;5036349;28;20017;-79
2021/01/30 09:56:03;;;;;;;9.15;5.75;;;;;;;;;;5036343;28;20036;-80
2021/01/30 09:58:29;;;;;;;9.23;6.00;;;;;;;;;;5036627;28;20096;-80
2021/01/30 10:00:57;;;;;;;13.15;6.63;;;;;;;;;;5036392;28;20025;-80
2021/01/30 10:03:26;;;;;;;9.48;6.80;;;;;;;;;;5036580;28;20032;-81
2021/01/30 10:05:53;;;;;;;11.65;7.30;;;;;;;;;;5036476;28;20082;-81
2021/01/30 10:08:29;;;;;;;10.65;6.53;;;;;;;;;;5036471;28;20045;-81
2021/01/30 10:11:21;;;;;;;10.27;6.38;;;;;;;;;;5054117;28;20013;-79
2021/01/30 10:13:50;;;;;;;9.00;5.95;;;;;;;;;;5033111;28;20029;-81
2021/01/30 10:16:21;;;;;;;10.70;6.30;;;;;;;;;;5036326;28;20090;-80
2021/01/30 10:18:51;;;;;;;9.82;6.15;;;;;;;;;;5036271;28;20021;-80
2021/01/30 10:21:28;;;;;;;10.30;6.00;;;;;;;;;;5036104;28;20453;-79
2021/01/30 10:23:54;;;;;;;12.18;6.85;;;;;;;;;;5035036;28;20047;-79
2021/01/30 10:26:25;;;;;;;10.82;6.28;;;;;;;;;;5035441;28;20082;-79
2021/01/30 10:28:56;;;;;;;10.05;6.18;;;;;;;;;;5032808;28;20511;-80
2021/01/30 10:31:25;;;;;;;9.50;5.88;;;;;;;;;;5035186;28;20111;-80
2021/01/30 10:33:54;;;;;;;9.38;6.00;;;;;;;;;;5054639;28;20473;-79
2021/01/30 10:36:22;;;;;;;8.85;5.65;;;;;;;;;;5036630;28;20035;-79
2021/01/30 10:38:48;;;;;;;10.20;6.35;;;;;;;;;;5035828;28;20052;-79
2021/01/30 10:41:18;;;;;;;9.45;6.20;;;;;;;;;;5036404;28;20017;-80
2021/01/30 10:43:46;;;;;;;9.38;5.57;;;;;;;;;;5036460;28;20029;-79
2021/01/30 10:46:17;;;;;;;9.88;5.80;;;;;;;;;;5036901;28;20167;-83
2021/01/30 10:48:44;;;;;;;9.90;5.28;;;;;;;;;;5054459;28;20063;-81
2021/01/30 10:51:16;;;;;;;11.05;6.03;;;;;;;;;;5054274;28;20035;-80
2021/01/30 10:53:43;;;;;;;9.65;5.68;;;;;;;;;;5054767;28;20013;-82
2021/01/30 10:56:16;;;;;;;10.30;6.32;;;;;;;;;;5054288;28;20095;-79
2021/01/30 10:58:44;;;;;;;9.35;6.22;;;;;;;;;;5036909;28;20040;-77
2021/01/30 11:01:19;;;;;;;9.93;6.78;;;;;;;;;;5054001;28;20017;-80
2021/01/30 11:03:45;;;;;;;10.23;6.45;;;;;;;;;;5036078;28;20396;-80
2021/01/30 11:06:30;;;;;;;9.95;6.55;;;;;;;;;;5036034;28;20507;-81
2021/01/30 11:08:58;;;;;;;11.38;6.78;;;;;;;;;;5035587;28;20025;-80
2021/01/30 11:11:26;;;;;;;9.13;5.72;;;;;;;;;;5036339;28;20369;-80
2021/01/30 11:13:52;;;;;;;11.73;7.13;;;;;;;;;;5053587;28;20035;-79
2021/01/30 11:16:23;;;;;;;12.52;6.93;;;;;;;;;;5035705;28;20112;-79
2021/01/30 11:18:50;;;;;;;;;;;;;;;;;;5036303;28;20025;-79
2021/01/30 11:21:33;;;;;;;8.80;5.63;;;;;;;;;;5053292;28;20007;-77
2021/01/30 11:24:14;;;;;;;11.95;6.93;;;;;;;;;;5053733;28;20017;-79
2021/01/30 11:26:41;;;;;;;10.73;7.13;;;;;;;;;;5035454;28;20021;-80
2021/01/30 11:29:27;;;;;;;9.88;6.13;;;;;;;;;;5053239;28;20028;-79
2021/01/30 11:31:55;;;;;;;10.63;6.70;;;;;;;;;;5035626;28;20040;-80
2021/01/30 11:34:21;;;;;;;9.57;5.97;;;;;;;;;;5035146;28;20032;-80
2021/01/30 11:36:47;;;;;;;10.43;6.90;;;;;;;;;;5053550;28;20033;-81
2021/01/30 11:39:13;;;;;;;10.65;6.43;;;;;;;;;;5034782;28;20385;-80
2021/01/30 11:41:39;;;;;;;10.07;6.18;;;;;;;;;;5035200;28;20032;-80
2021/01/30 11:44:05;;;;;;;10.13;6.38;;;;;;;;;;5035227;28;20017;-80
2021/01/30 11:46:31;;;;;;;13.00;6.47;;;;;;;;;;5035601;28;20032;-81
2021/01/30 11:48:57;;;;;;;10.77;7.45;;;;;;;;;;5035727;28;20021;-81
2021/01/30 11:51:25;;;;;;;10.32;6.47;;;;;;;;;;5035447;28;20024;-81
2021/01/30 11:53:52;;;;;;;11.25;7.18;;;;;;;;;;5053195;28;20032;-80
2021/01/30 11:56:18;;;;;;;10.35;6.50;;;;;;;;;;5035393;28;20099;-82
2021/01/30 11:58:44;;;;;;;9.70;6.72;;;;;;;;;;5035177;28;20024;-80
2021/01/30 12:01:11;;;;;;;10.63;6.50;;;;;;;;;;5035137;28;20031;-79
2021/01/30 12:03:37;;;;;;;10.02;6.78;;;;;;;;;;5034834;28;20527;-81
2021/01/30 12:06:04;;;;;;;10.60;6.38;;;;;;;;;;5034045;28;20024;-79
2021/01/30 12:08:30;;;;;;;10.75;7.35;;;;;;;;;;5034906;28;20511;-82
2021/01/30 12:10:56;;;;;;;11.18;6.78;;;;;;;;;;5035029;28;20040;-81
2021/01/30 12:13:22;;;;;;;11.13;7.03;;;;;;;;;;5035197;28;20035;-81
2021/01/30 12:15:48;;;;;;;11.35;7.50;;;;;;;;;;5034965;28;20385;-80
2021/01/30 12:18:16;;;;;;;13.23;7.03;;;;;;;;;;5034915;28;20021;-80
2021/01/30 12:20:42;;;;;;;13.30;7.18;;;;;;;;;;5052285;28;20021;-77
2021/01/30 12:23:10;;;;;;;12.15;7.90;;;;;;;;;;5035197;28;20017;-79
2021/01/30 12:25:36;;;;;;;10.50;6.82;;;;;;;;;;5033751;28;20028;-77
2021/01/30 12:28:02;;;;;;;11.63;6.93;;;;;;;;;;5034865;28;20044;-78
2021/01/30 12:30:32;;;;;;;11.02;7.57;;;;;;;;;;5035020;28;20028;-78
2021/01/30 12:32:58;;;;;;;10.33;6.03;;;;;;;;;;5053076;28;20039;-79
2021/01/30 12:35:26;;;;;;;10.95;7.75;;;;;;;;;;5035120;28;20033;-80
2021/01/30 12:37:53;;;;;;;11.70;8.18;;;;;;;;;;5034415;28;20044;-78
2021/01/30 12:40:20;;;;;;;10.70;6.55;;;;;;;;;;5051153;28;20021;-79
2021/01/30 12:42:46;;;;;;;10.65;6.93;;;;;;;;;;5033029;28;20029;-79
2021/01/30 12:45:13;;;;;;;9.45;6.47;;;;;;;;;;5032697;28;20021;-79
2021/01/30 12:47:40;;;;;;;11.90;7.38;;;;;;;;;;5037160;28;20075;-78
2021/01/30 12:50:07;;;;;;;11.18;7.75;;;;;;;;;;5036916;28;20024;-78
2021/01/30 12:52:33;;;;;;;10.60;6.93;;;;;;;;;;5033886;28;20086;-78
2021/01/30 12:55:00;;;;;;;9.77;6.55;;;;;;;;;;5054361;28;20021;-78
2021/01/30 12:57:26;;;;;;;12.95;8.23;;;;;;;;;;5036668;28;20434;-78
2021/01/30 12:59:52;;;;;;;11.82;8.02;;;;;;;;;;5054228;28;20016;-78
2021/01/30 13:02:18;;;;;;;10.20;6.40;;;;;;;;;;5054967;28;20066;-78
2021/01/30 13:04:44;;;;;;;11.20;6.97;;;;;;;;;;5037094;28;20021;-78
2021/01/30 13:07:10;;;;;;;12.00;7.68;;;;;;;;;;5036961;28;20023;-79
2021/01/30 13:09:36;;;;;;;10.43;6.75;;;;;;;;;;5036894;28;20017;-78
2021/01/30 13:12:02;;;;;;;9.05;5.53;;;;;;;;;;5054919;28;20519;-78
2021/01/30 13:14:28;;;;;;;9.75;6.40;;;;;;;;;;5036631;28;20025;-79
2021/01/30 13:16:54;;;;;;;12.73;6.90;;;;;;;;;;5036155;28;20021;-78
2021/01/30 13:19:20;;;;;;;12.48;7.05;;;;;;;;;;5036518;28;20016;-79
2021/01/30 13:21:47;;;;;;;10.75;7.03;;;;;;;;;;5036542;28;20021;-79
2021/01/30 13:24:13;;;;;;;11.10;6.57;;;;;;;;;;5036186;28;20037;-79
2021/01/30 13:26:40;;;;;;;11.00;5.97;;;;;;;;;;5051593;28;20465;-79
2021/01/30 13:29:07;;;;;;;12.60;6.38;;;;;;;;;;5035819;28;20021;-79
2021/01/30 13:31:40;;;;;;;9.40;4.60;;;;;;;;;;5036565;28;20025;-83
2021/01/30 13:34:06;;;;;;;10.23;6.57;;;;;;;;;;5034816;28;20013;-78
2021/01/30 13:36:32;;;;;;;11.07;5.82;;;;;;;;;;5038205;28;20017;-79
2021/01/30 13:39:00;;;;;;;12.15;7.28;;;;;;;;;;5037788;28;20095;-80
2021/01/30 13:41:26;;;;;;;11.07;5.78;;;;;;;;;;5038262;28;20437;-81
2021/01/30 13:43:52;;;;;;;11.50;6.22;;;;;;;;;;5038440;28;20059;-79
2021/01/30 13:46:18;;;;;;;11.23;6.47;;;;;;;;;;5054903;28;20024;-79
2021/01/30 13:48:44;;;;;;;10.60;5.90;;;;;;;;;;5053961;28;20021;-79
2021/01/30 13:51:09;;;;;;;12.27;7.93;;;;;;;;;;5036480;28;20009;-79
2021/01/30 13:53:35;;;;;;;12.90;7.20;;;;;;;;;;5036701;28;20028;-77
2021/01/30 13:56:01;;;;;;;12.55;7.30;;;;;;;;;;5036930;28;20024;-80
2021/01/30 13:58:28;;;;;;;11.18;6.88;;;;;;;;;;5037850;28;20036;-84
2021/01/30 14:00:54;;;;;;;12.63;6.05;;;;;;;;;;5055348;28;20032;-79
2021/01/30 14:03:20;;;;;;;11.38;6.38;;;;;;;;;;5038537;28;20017;-78
2021/01/30 14:05:49;;;;;;;12.00;7.53;;;;;;;;;;5037961;28;20017;-77
2021/01/30 14:08:15;;;;;;;15.15;8.88;;;;;;;;;;5037877;28;20073;-78
2021/01/30 14:10:41;;;;;;;10.25;6.75;;;;;;;;;;5037336;28;20105;-79
2021/01/30 14:13:07;;;;;;;11.15;7.10;;;;;;;;;;5036260;28;20155;-79
2021/01/30 14:15:33;;;;;;;10.43;6.75;;;;;;;;;;5036685;28;20078;-80
2021/01/30 14:18:00;;;;;;;11.45;7.85;;;;;;;;;;5036408;28;20408;-80
2021/01/30 14:20:26;;;;;;;8.68;4.63;;;;;;;;;;5054636;28;20053;-79
2021/01/30 14:22:53;;;;;;;10.63;4.50;;;;;;;;;;5036110;28;20009;-79
2021/01/30 14:25:19;;;;;;;13.18;7.75;;;;;;;;;;5036676;28;20017;-79
2021/01/30 14:27:46;;;;;;;13.65;5.93;;;;;;;;;;5054187;28;20009;-82
2021/01/30 14:30:12;;;;;;;10.15;5.97;;;;;;;;;;5036576;28;20080;-81
2021/01/30 14:32:39;;;;;;;11.10;7.47;;;;;;;;;;5054458;28;20055;-81
2021/01/30 14:35:05;;;;;;;12.50;6.90;;;;;;;;;;5053956;28;20020;-83
2021/01/30 14:37:32;;;;;;;11.00;6.25;;;;;;;;;;5033282;28;20047;-79
2021/01/30 14:39:59;;;;;;;11.85;6.40;;;;;;;;;;5033023;28;20029;-82
2021/01/30 14:42:26;;;;;;;13.27;6.07;;;;;;;;;;5033232;28;20017;-80
2021/01/30 14:44:52;;;;;;;10.35;4.85;;;;;;;;;;5032809;28;20017;-80
2021/01/30 14:47:19;;;;;;;11.25;7.30;;;;;;;;;;5032844;28;20014;-79